Pilot Station, Alaska
Current Conditions -  °F | °C
As of 8:56 PM on Tuesday 21 Oct 2014 (Local Time) from PASM Reporting Station
Overcast Overcast  
Wind Chill: 21°   Ceiling: 6500
Heat Index: 27°   Visibility: 10mi
Dew Point: 19°   Wind: 5mph
Humidity: 74%   Direction: 20°NNE
Pressure: 29.55"   Gusts: NA
Location:  61.94°N, 162.88°W
Report Text: PASM 220456Z AUTO 02004KT 10SM FEW048 SCT055 OVC065 M03/M07 A2955 RMK AO1
Loading
Personal Weather Stations






























Interactive Weather Map
Tropical Storm Tracking
New forecast layout! Learn more

10-Day Weather Forecast

Advertisements
Track Severe Weather on mobile